createdAt,value
2023-03-20T00:01:26.588Z,98708.91
2023-03-20T00:03:53.746Z,98711.50
2023-03-20T00:06:21.910Z,98715.66
2023-03-20T00:08:50.467Z,98711.72
2023-03-20T00:11:26.856Z,98715.44
2023-03-20T00:14:01.269Z,98717.34
2023-03-20T00:16:31.961Z,98722.66
2023-03-20T00:18:59.361Z,98721.78
2023-03-20T00:21:26.467Z,98728.06
2023-03-20T00:23:54.725Z,98730.75
2023-03-20T00:26:21.682Z,98722.03
2023-03-20T00:28:48.818Z,98718.47
2023-03-20T00:31:26.741Z,98711.38
2023-03-20T00:33:56.163Z,98716.16
2023-03-20T00:36:23.459Z,98717.00
2023-03-20T00:38:51.423Z,98716.16
2023-03-20T00:41:20.983Z,98716.25
2023-03-20T00:43:48.889Z,98713.09
2023-03-20T00:46:15.913Z,98709.53
2023-03-20T00:48:43.420Z,98701.94
2023-03-20T00:51:10.557Z,98703.06
2023-03-20T00:53:37.785Z,98703.53
2023-03-20T00:56:05.091Z,98699.59
2023-03-20T00:58:32.136Z,98698.88
2023-03-20T01:00:58.980Z,98697.53
2023-03-20T01:03:26.817Z,98691.50
2023-03-20T01:05:53.539Z,98687.13
2023-03-20T01:08:21.980Z,98687.97
2023-03-20T01:10:50.360Z,98691.25
2023-03-20T01:13:27.606Z,98691.78
2023-03-20T01:15:55.505Z,98694.19
2023-03-20T01:18:22.998Z,98687.97
2023-03-20T01:20:50.065Z,98690.53
2023-03-20T01:23:17.128Z,98695.56
2023-03-20T01:25:44.050Z,98695.31
2023-03-20T01:28:16.574Z,98696.41
2023-03-20T01:30:43.521Z,98698.16
2023-03-20T01:33:23.850Z,98698.16
2023-03-20T01:35:50.856Z,98699.13
2023-03-20T01:38:21.729Z,98701.44
2023-03-20T01:40:57.283Z,98699.38
2023-03-20T01:43:24.872Z,98705.41
2023-03-20T01:46:03.692Z,98702.47
2023-03-20T01:49:29.292Z,98708.47
2023-03-20T01:51:57.100Z,98713.13
2023-03-20T01:54:26.588Z,98709.31
2023-03-20T01:56:54.872Z,98717.16
2023-03-20T01:59:25.813Z,98719.25
2023-03-20T02:01:52.543Z,98716.66
2023-03-20T02:04:19.629Z,98718.13
2023-03-20T02:06:46.443Z,98718.41
2023-03-20T02:09:13.560Z,98717.53
2023-03-20T02:11:40.546Z,98721.22
2023-03-20T02:14:07.630Z,98722.31
2023-03-20T02:16:34.443Z,98716.66
2023-03-20T02:19:01.519Z,98720.47
2023-03-20T02:21:53.144Z,98729.56
2023-03-20T02:24:51.113Z,98716.19
2023-03-20T02:27:31.172Z,98714.47
2023-03-20T02:30:11.526Z,98716.53
2023-03-20T02:33:15.899Z,98717.50
2023-03-20T02:35:42.941Z,98709.81
2023-03-20T02:38:12.700Z,98708.31
2023-03-20T02:40:59.591Z,98709.69
2023-03-20T02:43:38.907Z,98709.69
2023-03-20T02:46:14.134Z,98710.44
2023-03-20T02:49:10.435Z,98714.22
2023-03-20T02:51:42.246Z,98712.50
2023-03-20T02:54:11.937Z,98707.72
2023-03-20T02:57:00.704Z,98709.69
2023-03-20T02:59:34.843Z,98702.81
2023-03-20T03:02:34.550Z,98719.13
2023-03-20T03:05:04.122Z,98709.09
2023-03-20T03:07:32.855Z,98713.47
2023-03-20T03:10:07.687Z,98721.09
2023-03-20T03:12:37.792Z,98717.03
2023-03-20T03:15:13.676Z,98712.38
2023-03-20T03:17:41.032Z,98712.75
2023-03-20T03:20:14.898Z,98714.34
2023-03-20T03:22:42.363Z,98714.72
2023-03-20T03:25:11.006Z,98711.53
2023-03-20T03:27:40.276Z,98721.19
2023-03-20T03:30:20.544Z,98717.78
2023-03-20T03:32:50.946Z,98713.59
2023-03-20T03:35:19.847Z,98712.84
2023-03-20T03:38:00.424Z,98715.69
2023-03-20T03:40:37.835Z,98712.75
2023-03-20T03:43:12.836Z,98717.28
2023-03-20T03:45:44.502Z,98720.22
2023-03-20T03:48:17.312Z,98722.78
2023-03-20T03:50:52.452Z,98712.25
2023-03-20T03:53:22.435Z,98715.19
2023-03-20T03:55:51.459Z,98722.91
2023-03-20T03:58:56.719Z,98715.06
2023-03-20T04:01:23.682Z,98709.06
2023-03-20T04:03:52.899Z,98715.06
2023-03-20T04:06:19.708Z,98719.59
2023-03-20T04:08:46.868Z,98708.94
2023-03-20T04:11:17.936Z,98715.31
2023-03-20T04:13:46.291Z,98716.41
2023-03-20T04:16:14.293Z,98718.13
2023-03-20T04:18:41.523Z,98714.81
2023-03-20T04:21:08.670Z,98714.19
2023-03-20T04:23:35.814Z,98715.81
2023-03-20T04:26:02.683Z,98721.19
2023-03-20T04:28:29.749Z,98715.03
2023-03-20T04:30:57.731Z,98705.50
2023-03-20T04:33:25.080Z,98718.84
2023-03-20T04:35:51.989Z,98717.25
2023-03-20T04:38:19.694Z,98723.63
2023-03-20T04:40:46.753Z,98721.91
2023-03-20T04:43:14.362Z,98718.94
2023-03-20T04:45:41.458Z,98720.44
2023-03-20T04:48:08.606Z,98728.53
2023-03-20T04:50:35.367Z,98733.91
2023-03-20T04:53:02.434Z,98726.41
2023-03-20T04:55:29.228Z,98725.56
2023-03-20T04:57:56.454Z,98730.84
2023-03-20T05:00:23.267Z,98728.88
2023-03-20T05:02:50.334Z,98729.84
2023-03-20T05:05:17.078Z,98730.44
2023-03-20T05:07:44.317Z,98730.34
2023-03-20T05:10:11.512Z,98730.06
2023-03-20T05:12:38.579Z,98734.72
2023-03-20T05:15:05.877Z,98730.22
2023-03-20T05:17:32.989Z,98734.00
2023-03-20T05:20:00.126Z,98729.47
2023-03-20T05:22:27.260Z,98727.16
2023-03-20T05:24:54.090Z,98736.91
2023-03-20T05:27:21.171Z,98740.34
2023-03-20T05:29:47.957Z,98737.78
2023-03-20T05:32:15.648Z,98746.13
2023-03-20T05:34:42.425Z,98744.50
2023-03-20T05:37:09.571Z,98743.16
2023-03-20T05:39:36.321Z,98741.59
2023-03-20T05:42:03.528Z,98739.72
2023-03-20T05:44:30.876Z,98746.22
2023-03-20T05:46:57.898Z,98751.25
2023-03-20T05:49:24.706Z,98751.25
2023-03-20T05:51:51.874Z,98750.41
2023-03-20T05:54:18.646Z,98763.25
2023-03-20T05:56:46.708Z,98764.31
2023-03-20T05:59:13.661Z,98754.44
2023-03-20T06:01:40.837Z,98760.06
2023-03-20T06:04:08.546Z,98764.59
2023-03-20T06:06:38.008Z,98766.28
2023-03-20T06:09:05.200Z,98770.72
2023-03-20T06:11:33.277Z,98770.59
2023-03-20T06:14:01.534Z,98775.38
2023-03-20T06:16:28.656Z,98768.75
2023-03-20T06:18:55.692Z,98774.38
2023-03-20T06:21:22.762Z,98779.75
2023-03-20T06:23:49.523Z,98783.44
2023-03-20T06:26:16.578Z,98789.78
2023-03-20T06:28:43.426Z,98791.28
2023-03-20T06:31:10.587Z,98798.63
2023-03-20T06:33:38.135Z,98797.88
2023-03-20T06:36:05.591Z,98794.13
2023-03-20T06:38:32.384Z,98797.53
2023-03-20T06:40:59.428Z,98796.81
2023-03-20T06:43:26.222Z,98797.88
2023-03-20T06:45:53.599Z,98799.72
2023-03-20T06:48:23.327Z,98797.78
2023-03-20T06:50:50.795Z,98795.69
2023-03-20T06:53:17.620Z,98805.84
2023-03-20T06:55:48.734Z,98799.63
2023-03-20T06:58:15.643Z,98808.44
2023-03-20T07:00:42.796Z,98804.75
2023-03-20T07:03:10.205Z,98802.94
2023-03-20T07:05:38.614Z,98801.94
2023-03-20T07:08:05.897Z,98805.50
2023-03-20T07:10:34.103Z,98808.94
2023-03-20T07:13:01.131Z,98811.75
2023-03-20T07:15:29.753Z,98820.56
2023-03-20T07:17:56.572Z,98816.06
2023-03-20T07:20:24.832Z,98821.31
2023-03-20T07:22:51.686Z,98823.88
2023-03-20T07:25:26.116Z,98822.06
2023-03-20T07:27:59.258Z,98823.88
2023-03-20T07:30:26.635Z,98821.06
2023-03-20T07:32:53.565Z,98826.34
2023-03-20T07:35:20.790Z,98820.75
2023-03-20T07:37:47.563Z,98815.69
2023-03-20T07:40:14.789Z,98816.44
2023-03-20T07:42:41.869Z,98813.50
2023-03-20T07:45:09.418Z,98819.78
2023-03-20T07:47:36.577Z,98824.16
2023-03-20T07:50:05.221Z,98822.25
2023-03-20T07:52:33.209Z,98826.53
2023-03-20T07:55:00.282Z,98816.84
2023-03-20T07:57:27.102Z,98830.19
2023-03-20T07:59:54.249Z,98834.50
2023-03-20T08:02:21.097Z,98832.53
2023-03-20T08:04:48.240Z,98823.59
2023-03-20T08:07:15.327Z,98832.31
2023-03-20T08:09:42.768Z,98831.06
2023-03-20T08:12:09.589Z,98839.31
2023-03-20T08:14:38.735Z,98833.66
2023-03-20T08:17:14.385Z,98836.25
2023-03-20T08:19:42.271Z,98829.16
2023-03-20T08:22:09.038Z,98827.06
2023-03-20T08:24:36.115Z,98822.19
2023-03-20T08:27:02.967Z,98827.47
2023-03-20T08:29:30.103Z,98830.16
2023-03-20T08:31:57.848Z,98826.34
2023-03-20T08:34:24.914Z,98834.19
2023-03-20T08:36:52.775Z,98827.50
2023-03-20T08:39:19.870Z,98822.84
2023-03-20T08:41:47.022Z,98821.97
2023-03-20T08:44:14.137Z,98828.84
2023-03-20T08:46:40.989Z,98826.53
2023-03-20T08:49:08.387Z,98827.75
2023-03-20T08:51:35.346Z,98829.38
2023-03-20T08:54:02.415Z,98831.56
2023-03-20T08:56:29.155Z,98830.00
2023-03-20T08:58:56.346Z,98825.81
2023-03-20T09:01:23.324Z,98827.69
2023-03-20T09:03:50.544Z,98827.78
2023-03-20T09:06:17.291Z,98831.97
2023-03-20T09:08:44.490Z,98827.16
2023-03-20T09:11:11.268Z,98832.00
2023-03-20T09:13:38.346Z,98833.34
2023-03-20T09:16:06.289Z,98827.56
2023-03-20T09:18:33.424Z,98830.75
2023-03-20T09:21:00.317Z,98834.78
2023-03-20T09:23:27.423Z,98830.47
2023-03-20T09:25:54.236Z,98834.53
2023-03-20T09:28:21.356Z,98833.28
2023-03-20T09:30:48.164Z,98827.50
2023-03-20T09:33:15.536Z,98831.69
2023-03-20T09:35:43.595Z,98834.88
2023-03-20T09:38:12.316Z,98836.31
2023-03-20T09:40:52.318Z,98833.25
2023-03-20T09:43:38.617Z,98840.81
2023-03-20T09:46:27.224Z,98833.34
2023-03-20T09:48:57.920Z,98837.38
2023-03-20T09:51:28.162Z,98837.00
2023-03-20T09:54:02.257Z,98834.16
2023-03-20T09:56:29.502Z,98830.31
2023-03-20T09:59:04.444Z,98829.94
2023-03-20T10:01:57.580Z,98825.13
2023-03-20T10:04:26.848Z,98821.31
2023-03-20T10:06:53.803Z,98818.34
2023-03-20T10:09:25.405Z,98813.69
2023-03-20T10:12:10.930Z,98816.84
2023-03-20T10:15:15.471Z,98820.00
2023-03-20T10:17:59.131Z,98821.72
2023-03-20T10:20:31.327Z,98818.03
2023-03-20T10:22:59.334Z,98816.94
2023-03-20T10:25:30.148Z,98819.50
2023-03-20T10:28:01.267Z,98811.22
2023-03-20T10:31:03.171Z,98805.81
2023-03-20T10:33:39.295Z,98814.59
2023-03-20T10:36:12.282Z,98810.34
2023-03-20T10:38:54.371Z,98806.38
2023-03-20T10:41:23.352Z,98804.44
2023-03-20T10:43:51.529Z,98803.16
2023-03-20T10:46:22.777Z,98807.03
2023-03-20T10:48:52.024Z,98807.34
2023-03-20T10:51:21.345Z,98800.56
2023-03-20T10:53:56.870Z,98802.59
2023-03-20T10:56:30.700Z,98795.03
2023-03-20T10:59:24.930Z,98795.81
2023-03-20T11:01:52.224Z,98796.56
2023-03-20T11:04:19.206Z,98793.00
2023-03-20T11:07:00.952Z,98793.19
2023-03-20T11:09:29.896Z,98790.78
2023-03-20T11:11:57.613Z,98797.78
2023-03-20T11:14:27.106Z,98790.84
2023-03-20T11:16:56.031Z,98790.44
2023-03-20T11:19:24.154Z,98784.34
2023-03-20T11:21:58.717Z,98786.50
2023-03-20T11:24:42.236Z,98782.34
2023-03-20T11:27:14.696Z,98774.22
2023-03-20T11:29:44.408Z,98768.13
2023-03-20T11:32:31.566Z,98765.38
2023-03-20T11:35:09.406Z,98767.25
2023-03-20T11:37:36.610Z,98759.53
2023-03-20T11:40:09.427Z,98759.81
2023-03-20T11:42:37.342Z,98748.66
2023-03-20T11:45:17.702Z,98752.94
2023-03-20T11:47:49.170Z,98752.50
2023-03-20T11:50:35.825Z,98746.28
2023-03-20T11:53:04.619Z,98745.47
2023-03-20T11:55:33.060Z,98740.84
2023-03-20T11:58:04.256Z,98738.50
2023-03-20T12:00:41.510Z,98745.03
2023-03-20T12:03:33.502Z,98738.72
2023-03-20T12:06:00.746Z,98732.50
2023-03-20T12:08:27.824Z,98741.63
2023-03-20T12:10:58.349Z,98736.47
2023-03-20T12:13:27.875Z,98743.81
2023-03-20T12:15:57.252Z,98742.38
2023-03-20T12:18:39.232Z,98739.03
2023-03-20T12:21:27.052Z,98740.59
2023-03-20T12:24:05.086Z,98740.69
2023-03-20T12:26:31.826Z,98739.34
2023-03-20T12:29:08.064Z,98743.19
2023-03-20T12:32:28.073Z,98745.44
2023-03-20T12:35:29.284Z,98735.84
2023-03-20T12:37:56.011Z,98734.97
2023-03-20T12:40:28.558Z,98738.94
2023-03-20T12:42:55.314Z,98736.91
2023-03-20T12:45:44.219Z,98745.91
2023-03-20T12:48:36.939Z,98733.31
2023-03-20T12:51:36.477Z,98733.88
2023-03-20T12:54:27.759Z,98738.28
2023-03-20T12:56:57.862Z,98732.56
2023-03-20T12:59:37.490Z,98735.56
2023-03-20T13:02:34.937Z,98732.84
2023-03-20T13:05:34.016Z,98736.13
2023-03-20T13:08:04.264Z,98737.00
2023-03-20T13:10:53.163Z,98731.69
2023-03-20T13:13:42.828Z,98734.28
2023-03-20T13:16:42.862Z,98735.13
2023-03-20T13:19:24.524Z,98733.41
2023-03-20T13:22:02.744Z,98727.66
2023-03-20T13:24:41.791Z,98724.06
2023-03-20T13:27:21.488Z,98718.09
2023-03-20T13:30:00.839Z,98726.94
2023-03-20T13:32:34.187Z,98720.38
2023-03-20T13:35:39.039Z,98720.38
2023-03-20T13:38:24.892Z,98716.75
2023-03-20T13:40:58.886Z,98718.94
2023-03-20T13:43:57.127Z,98708.44
2023-03-20T13:46:25.718Z,98711.31
2023-03-20T13:48:53.299Z,98710.09
2023-03-20T13:51:22.556Z,98708.44
2023-03-20T13:53:57.755Z,98711.31
2023-03-20T13:56:40.099Z,98708.97
2023-03-20T13:59:29.598Z,98701.84
2023-03-20T14:02:02.407Z,98698.81
2023-03-20T14:04:29.348Z,98709.69
2023-03-20T14:06:57.634Z,98704.56
2023-03-20T14:09:28.362Z,98707.28
2023-03-20T14:11:56.559Z,98706.09
2023-03-20T14:14:39.729Z,98702.38
2023-03-20T14:17:17.552Z,98702.22
2023-03-20T14:19:44.600Z,98705.78
2023-03-20T14:22:37.095Z,98701.34
2023-03-20T14:25:08.480Z,98705.47
2023-03-20T14:27:44.573Z,98700.03
2023-03-20T14:30:30.381Z,98700.03
2023-03-20T14:33:01.272Z,98699.03
2023-03-20T14:35:28.724Z,98700.03
2023-03-20T14:38:09.775Z,98700.88
2023-03-20T14:40:41.284Z,98693.75
2023-03-20T14:43:20.351Z,98696.63
2023-03-20T14:46:25.627Z,98693.59
2023-03-20T14:48:55.975Z,98694.28
2023-03-20T14:51:25.870Z,98693.25
2023-03-20T14:54:21.776Z,98684.25
2023-03-20T14:56:49.002Z,98686.13
2023-03-20T14:59:16.817Z,98681.53
2023-03-20T15:01:45.990Z,98682.38
2023-03-20T15:04:27.334Z,98676.47
2023-03-20T15:07:10.898Z,98672.91
2023-03-20T15:09:40.162Z,98678.34
2023-03-20T15:12:07.011Z,98681.06
2023-03-20T15:14:42.432Z,98674.56
2023-03-20T15:17:23.709Z,98679.03
2023-03-20T15:19:50.872Z,98684.31
2023-03-20T15:22:19.417Z,98684.31
2023-03-20T15:24:53.871Z,98677.69
2023-03-20T15:27:21.263Z,98671.84
2023-03-20T15:29:51.566Z,98678.41
2023-03-20T15:32:18.691Z,98675.66
2023-03-20T15:34:47.410Z,98679.78
2023-03-20T15:37:20.665Z,98676.50
2023-03-20T15:39:49.522Z,98675.00
2023-03-20T15:42:18.400Z,98681.81
2023-03-20T15:44:48.234Z,98680.97
2023-03-20T15:47:20.590Z,98680.25
2023-03-20T15:49:54.624Z,98680.25
2023-03-20T15:52:27.144Z,98677.53
2023-03-20T15:54:55.494Z,98685.84
2023-03-20T15:57:30.731Z,98677.53
2023-03-20T15:59:57.977Z,98684.00
2023-03-20T16:02:25.659Z,98679.56
2023-03-20T16:04:54.243Z,98684.16
2023-03-20T16:07:29.274Z,98685.66
2023-03-20T16:09:56.030Z,98684.09
2023-03-20T16:12:23.563Z,98680.53
2023-03-20T16:14:50.801Z,98678.81
2023-03-20T16:17:18.260Z,98684.25
2023-03-20T16:19:45.300Z,98688.16
2023-03-20T16:22:19.585Z,98691.03
2023-03-20T16:24:48.365Z,98689.47
2023-03-20T16:27:20.937Z,98687.94
2023-03-20T16:29:47.700Z,98686.22
2023-03-20T16:32:21.811Z,98675.66
2023-03-20T16:34:50.553Z,98682.44
2023-03-20T16:37:26.290Z,98685.31
2023-03-20T16:40:04.135Z,98687.50
2023-03-20T16:42:31.214Z,98689.50
2023-03-20T16:44:58.343Z,98700.69
2023-03-20T16:47:34.051Z,98702.72
2023-03-20T16:50:11.157Z,98692.31
2023-03-20T16:52:42.135Z,98701.47
2023-03-20T16:55:17.854Z,98703.19
2023-03-20T16:57:47.196Z,98709.78
2023-03-20T17:00:25.280Z,98710.25
2023-03-20T17:03:16.703Z,98719.59
2023-03-20T17:05:52.626Z,98730.09
2023-03-20T17:08:28.640Z,98737.97
2023-03-20T17:10:59.828Z,98755.81
2023-03-20T17:13:27.014Z,98754.50
2023-03-20T17:15:54.229Z,98761.75
2023-03-20T17:18:21.330Z,98763.44
2023-03-20T17:20:48.078Z,98767.78
2023-03-20T17:23:18.015Z,98779.69
2023-03-20T17:25:44.868Z,98781.66
2023-03-20T17:28:17.313Z,98778.09
2023-03-20T17:30:46.031Z,98774.41
2023-03-20T17:33:13.929Z,98761.94
2023-03-20T17:35:40.924Z,98762.94
2023-03-20T17:38:17.906Z,98753.41
2023-03-20T17:40:44.881Z,98747.41
2023-03-20T17:43:13.172Z,98731.56
2023-03-20T17:45:40.098Z,98723.72
2023-03-20T17:48:09.949Z,98715.31
2023-03-20T17:50:37.005Z,98714.09
2023-03-20T17:53:04.236Z,98715.88
2023-03-20T17:55:31.021Z,98713.59
2023-03-20T17:57:58.103Z,98722.91
2023-03-20T18:00:25.218Z,98724.44
2023-03-20T18:02:52.345Z,98728.19
2023-03-20T18:05:19.290Z,98726.44
2023-03-20T18:07:46.534Z,98727.63
2023-03-20T18:10:20.954Z,98725.34
2023-03-20T18:12:48.095Z,98723.06
2023-03-20T18:15:14.928Z,98723.63
2023-03-20T18:17:42.023Z,98735.94
2023-03-20T18:20:33.778Z,98744.06
2023-03-20T18:23:00.893Z,98746.63
2023-03-20T18:25:27.752Z,98752.34
2023-03-20T18:27:55.572Z,98751.53
2023-03-20T18:30:24.696Z,98756.47
2023-03-20T18:32:51.902Z,98752.78
2023-03-20T18:35:18.817Z,98761.06
2023-03-20T18:37:46.012Z,98757.94
2023-03-20T18:40:26.103Z,98761.13
2023-03-20T18:42:54.176Z,98754.94
2023-03-20T18:45:21.883Z,98750.13
2023-03-20T18:47:49.227Z,98752.97
2023-03-20T18:50:26.769Z,98750.13
2023-03-20T18:52:54.245Z,98747.97
2023-03-20T18:55:21.428Z,98758.41
2023-03-20T18:57:48.872Z,98757.97
2023-03-20T19:00:24.704Z,98755.97
2023-03-20T19:02:53.288Z,98759.66
2023-03-20T19:05:20.260Z,98761.94
2023-03-20T19:07:47.602Z,98773.81
2023-03-20T19:10:26.504Z,98763.97
2023-03-20T19:12:53.823Z,98769.66
2023-03-20T19:15:21.316Z,98764.69
2023-03-20T19:17:48.507Z,98765.81
2023-03-20T19:20:34.262Z,98764.50
2023-03-20T19:23:06.268Z,98761.22
2023-03-20T19:25:33.275Z,98763.38
2023-03-20T19:28:00.717Z,98766.78
2023-03-20T19:30:38.704Z,98764.66
2023-03-20T19:33:06.887Z,98770.78
2023-03-20T19:36:01.210Z,98777.03
2023-03-20T19:38:21.758Z,98774.78
2023-03-20T19:40:49.743Z,98777.34
2023-03-20T19:43:16.872Z,98782.63
2023-03-20T19:45:44.119Z,98781.06
2023-03-20T19:48:27.054Z,98782.31
2023-03-20T19:50:54.083Z,98790.72
2023-03-20T19:53:22.365Z,98790.13
2023-03-20T19:55:49.192Z,98791.97
2023-03-20T19:58:16.360Z,98790.41
2023-03-20T20:01:00.176Z,98798.81
2023-03-20T20:03:27.852Z,98791.53
2023-03-20T20:05:55.029Z,98794.78
2023-03-20T20:08:33.413Z,98802.78
2023-03-20T20:11:14.456Z,98790.69
2023-03-20T20:14:03.590Z,98789.81
2023-03-20T20:16:28.762Z,98790.06
2023-03-20T20:18:55.931Z,98792.66
2023-03-20T20:24:09.870Z,98789.63
2023-03-20T20:26:41.152Z,98793.19
2023-03-20T20:29:12.233Z,98788.78
2023-03-20T20:31:39.110Z,98787.06
2023-03-20T20:35:14.332Z,98798.88
2023-03-20T20:39:40.525Z,98789.31
2023-03-20T20:42:07.628Z,98795.44
2023-03-20T20:44:35.024Z,98795.59
2023-03-20T20:47:01.896Z,98784.88
2023-03-20T20:49:29.057Z,98780.03
2023-03-20T20:51:56.051Z,98770.72
2023-03-20T20:54:23.203Z,98779.03
2023-03-20T20:56:50.039Z,98762.47
2023-03-20T20:59:17.157Z,98762.16
2023-03-20T21:01:43.998Z,98762.47
2023-03-20T21:04:11.429Z,98756.16
2023-03-20T21:07:06.087Z,98764.41
2023-03-20T21:09:27.182Z,98757.28
2023-03-20T21:11:53.966Z,98754.88
2023-03-20T21:14:21.126Z,98754.00
2023-03-20T21:16:47.934Z,98755.84
2023-03-20T21:19:15.159Z,98747.16
2023-03-20T21:21:42.145Z,98748.25
2023-03-20T21:24:30.608Z,98750.13
2023-03-20T21:26:58.894Z,98750.66
2023-03-20T21:29:26.747Z,98746.00
2023-03-20T21:31:53.673Z,98743.28
2023-03-20T21:34:20.939Z,98747.81
2023-03-20T21:36:49.241Z,98745.53
2023-03-20T21:39:17.581Z,98748.25
2023-03-20T21:41:44.463Z,98743.53
2023-03-20T21:44:17.063Z,98741.25
2023-03-20T21:50:28.753Z,98742.66
2023-03-20T21:58:36.616Z,98744.03
2023-03-20T22:04:01.737Z,98744.03
2023-03-20T22:09:52.418Z,98750.13
2023-03-20T22:12:43.862Z,98748.25
2023-03-20T22:15:29.328Z,98751.09
2023-03-20T22:32:11.059Z,98761.09
2023-03-20T22:35:15.568Z,98747.50
2023-03-20T22:40:37.113Z,98738.16
2023-03-20T22:45:31.588Z,98755.63
2023-03-20T22:48:05.346Z,98759.47
2023-03-20T22:50:32.475Z,98768.31
2023-03-20T22:52:59.259Z,98763.28
2023-03-20T22:55:26.312Z,98759.72
2023-03-20T22:58:06.497Z,98751.34
2023-03-20T23:00:35.774Z,98755.16
2023-03-20T23:03:17.146Z,98740.22
2023-03-20T23:05:47.267Z,98744.16
2023-03-20T23:08:14.010Z,98746.72
2023-03-20T23:10:45.780Z,98747.56
2023-03-20T23:13:12.739Z,98738.75
2023-03-20T23:15:39.811Z,98743.16
2023-03-20T23:18:06.651Z,98750.94
2023-03-20T23:20:33.768Z,98747.69
2023-03-20T23:23:00.598Z,98746.97
2023-03-20T23:25:38.830Z,98747.25
2023-03-20T23:28:09.777Z,98751.06
2023-03-20T23:30:45.345Z,98752.19
2023-03-20T23:33:14.906Z,98745.53
2023-03-20T23:35:41.972Z,98738.78
2023-03-20T23:38:08.820Z,98738.06
2023-03-20T23:40:36.391Z,98742.03
2023-03-20T23:43:03.671Z,98747.44
2023-03-20T23:45:30.976Z,98748.56
2023-03-20T23:47:57.801Z,98750.03
2023-03-20T23:50:31.900Z,98764.38
2023-03-20T23:53:17.531Z,98782.03
2023-03-20T23:55:46.980Z,98795.84
2023-03-20T23:58:13.806Z,98791.16
